Time;durP1;ratioP1;P1;durP2;ratioP2;P2;SDS_P1;SDS_P2;PMS_P1;PMS_P2;Temp;Humidity;BMP_temperature;BMP_pressure;BME280_temperature;BME280_humidity;BME280_pressure;Samples;Min_cycle;Max_cycle;Signal;HPM_P1;HPM_P2
2022/08/24 00:01:13;;;;;;;2.30;1.70;;;;;;;24.51;53.98;101808.47;4899955;29;20426;-84
2022/08/24 00:03:41;;;;;;;2.20;1.67;;;;;;;24.52;54.04;101804.94;4897633;29;20086;-84
2022/08/24 00:06:13;;;;;;;2.13;1.60;;;;;;;24.52;53.95;101811.09;4917505;29;20063;-84
2022/08/24 00:08:47;;;;;;;3.17;1.92;;;;;;;24.51;54.26;101806.72;4898127;29;20063;-84
2022/08/24 00:11:13;;;;;;;2.85;1.95;;;;;;;24.49;54.35;101805.88;4899622;29;20498;-83
2022/08/24 00:13:43;;;;;;;2.28;1.65;;;;;;;24.50;53.96;101807.63;4915772;29;20062;-84
2022/08/24 00:16:09;;;;;;;2.67;1.88;;;;;;;24.50;53.95;101810.25;4900731;29;20044;-84
2022/08/24 00:18:35;;;;;;;5.07;1.52;;;;;;;24.50;53.86;101810.25;4897855;29;20108;-84
2022/08/24 00:21:02;;;;;;;4.07;1.77;;;;;;;24.51;54.08;101813.75;4899149;29;20048;-84
2022/08/24 00:23:29;;;;;;;2.75;1.67;;;;;;;24.50;54.00;101812.00;4898962;29;20063;-84
2022/08/24 00:25:55;;;;;;;2.38;1.77;;;;;;;24.50;54.18;101814.63;4877616;29;20045;-84
2022/08/24 00:28:21;;;;;;;3.20;1.40;;;;;;;24.49;53.89;101821.66;4882048;29;20053;-84
2022/08/24 00:30:46;;;;;;;2.35;1.70;;;;;;;24.50;54.07;101817.25;4897210;29;20048;-83
2022/08/24 00:33:12;;;;;;;2.75;1.55;;;;;;;24.49;54.08;101810.28;4899526;29;20048;-83
2022/08/24 00:35:38;;;;;;;2.92;1.60;;;;;;;24.49;54.12;101812.91;4881999;29;20139;-84
2022/08/24 00:38:03;;;;;;;2.15;1.48;;;;;;;24.49;54.13;101807.66;4899425;29;20048;-83
2022/08/24 00:40:34;;;;;;;3.28;1.50;;;;;;;24.49;53.73;101807.66;4866760;29;20131;-84
2022/08/24 00:43:03;;;;;;;3.92;1.80;;;;;;;24.48;53.77;101801.53;4898761;29;20052;-84
2022/08/24 00:47:58;;;;;;;1.75;1.52;;;;;;;24.49;53.79;101807.66;4914400;29;20051;-84
2022/08/24 00:52:58;;;;;;;2.30;1.50;;;;;;;24.47;53.75;101812.03;4914234;29;20803;-84
2022/08/24 00:57:58;;;;;;;2.15;1.60;;;;;;;24.47;53.93;101794.50;4913994;29;21133;-84
2022/08/24 01:02:55;;;;;;;4.18;1.65;;;;;;;24.47;53.74;101799.75;4913938;29;20056;-84
2022/08/24 01:05:21;;;;;;;4.55;1.60;;;;;;;24.47;53.53;101796.25;4899431;29;20102;-84
2022/08/24 01:07:48;;;;;;;2.38;1.60;;;;;;;24.46;53.75;101786.66;4881399;29;20183;-84
2022/08/24 01:10:18;;;;;;;2.05;1.40;;;;;;;24.47;53.64;101796.25;4888844;29;20534;-84
2022/08/24 01:12:47;;;;;;;2.92;1.60;;;;;;;24.44;53.92;101786.69;4907157;29;20605;-84
2022/08/24 01:15:14;;;;;;;1.85;1.30;;;;;;;24.47;53.39;101796.25;4922151;29;20028;-84
2022/08/24 01:20:25;;;;;;;2.47;1.70;;;;;;;24.47;53.74;101793.63;4922307;29;20054;-84
2022/08/24 01:25:52;;;;;;;2.00;1.50;;;;;;;24.46;53.76;101795.41;4900242;29;20179;-84
2022/08/24 01:28:20;;;;;;;2.22;1.50;;;;;;;24.47;53.42;101802.38;4883382;29;20494;-84
2022/08/24 01:30:46;;;;;;;2.58;1.50;;;;;;;24.46;53.27;101808.56;4895993;29;20070;-84
2022/08/24 01:33:22;;;;;;;1.73;1.40;;;;;;;24.45;53.84;101812.06;4898731;29;20040;-84
2022/08/24 01:35:47;;;;;;;2.47;1.60;;;;;;;24.46;53.63;101816.44;4896453;29;20060;-84
2022/08/24 01:38:14;;;;;;;2.13;1.40;;;;;;;24.45;53.80;101819.97;4882836;29;20052;-84
2022/08/24 01:40:45;;;;;;;2.57;1.53;;;;;;;24.43;53.49;101816.50;4838753;29;1235811;-84
2022/08/24 01:43:12;;;;;;;1.77;1.40;;;;;;;24.43;53.35;101820.03;4898217;29;20052;-83
2022/08/24 01:45:38;;;;;;;2.22;1.70;;;;;;;24.44;53.58;101820.88;4913242;29;20132;-84
2022/08/24 01:48:04;;;;;;;2.65;1.50;;;;;;;24.43;53.48;101819.13;4882708;29;20147;-84
2022/08/24 01:50:30;;;;;;;1.85;1.33;;;;;;;24.44;53.30;101818.25;4871067;29;20056;-84
2022/08/24 01:53:00;;;;;;;1.90;1.60;;;;;;;24.44;53.69;101818.25;4897845;29;20111;-84
2022/08/24 01:55:25;;;;;;;2.05;1.60;;;;;;;24.43;53.59;101822.66;4915046;29;20108;-84
2022/08/24 01:57:51;;;;;;;4.03;1.60;;;;;;;24.43;53.57;101821.75;4892899;29;20064;-84
2022/08/24 02:00:20;;;;;;;2.10;1.40;;;;;;;24.43;53.88;101827.03;4879209;29;20052;-84
2022/08/24 02:02:46;;;;;;;2.20;1.70;;;;;;;24.42;53.70;101820.91;4895412;29;20082;-84
2022/08/24 02:05:14;;;;;;;2.92;1.90;;;;;;;24.42;53.59;101813.00;4882694;29;20084;-84
2022/08/24 02:07:39;;;;;;;3.22;1.60;;;;;;;24.41;53.71;101818.31;4887811;29;20059;-85
2022/08/24 02:10:07;;;;;;;3.40;1.60;;;;;;;24.41;53.80;101821.81;4882368;29;20048;-84
2022/08/24 02:12:37;;;;;;;2.58;1.70;;;;;;;24.41;53.57;101819.19;4896101;29;20044;-84
2022/08/24 02:15:06;;;;;;;3.78;1.58;;;;;;;24.40;53.96;101814.81;4897383;29;20055;-84
2022/08/24 02:17:33;;;;;;;2.95;1.70;;;;;;;24.40;53.80;101819.22;4912962;29;20044;-84
2022/08/24 02:19:59;;;;;;;3.97;1.77;;;;;;;24.40;53.87;101812.19;4897440;29;20139;-84
2022/08/24 02:22:25;;;;;;;2.22;1.50;;;;;;;24.40;53.62;101812.19;4897906;29;20131;-84
2022/08/24 02:24:50;;;;;;;2.00;1.73;;;;;;;24.40;53.55;101808.69;4895362;29;20108;-84
2022/08/24 02:27:15;;;;;;;2.67;1.65;;;;;;;24.40;53.74;101808.69;4882189;29;20038;-84
2022/08/24 02:29:42;;;;;;;3.15;1.65;;;;;;;24.40;53.87;101814.81;4879684;29;20070;-83
2022/08/24 02:32:10;;;;;;;2.65;1.80;;;;;;;24.40;53.48;101808.69;4901767;29;20048;-84
2022/08/24 02:34:35;;;;;;;2.72;1.70;;;;;;;24.40;53.37;101801.66;4864729;29;20060;-84
2022/08/24 02:37:01;;;;;;;2.97;1.92;;;;;;;24.39;53.55;101807.84;4882050;29;20047;-84
2022/08/24 02:41:52;;;;;;;1.88;1.58;;;;;;;24.39;53.53;101807.84;4912411;29;20491;-84
2022/08/24 02:44:18;;;;;;;4.95;2.10;;;;;;;24.40;53.61;101814.81;4881261;29;20063;-84
2022/08/24 02:46:46;;;;;;;2.28;1.83;;;;;;;24.40;53.74;101806.91;4911984;29;20048;-84
2022/08/24 02:49:12;;;;;;;3.60;2.00;;;;;;;24.39;54.04;101810.47;4882359;29;20115;-85
2022/08/24 02:51:40;;;;;;;3.28;2.10;;;;;;;24.40;53.45;101811.31;4879441;29;20056;-84
2022/08/24 02:54:06;;;;;;;2.72;1.90;;;;;;;24.40;53.59;101817.44;4914135;29;20103;-83
2022/08/24 02:56:31;;;;;;;2.10;1.85;;;;;;;24.40;53.45;101816.59;4895827;29;20083;-83
2022/08/24 02:58:59;;;;;;;3.47;2.05;;;;;;;24.40;53.56;101813.97;4897087;29;20060;-84
2022/08/24 03:01:26;;;;;;;2.97;2.10;;;;;;;24.39;53.82;101812.25;4898769;29;20055;-84
2022/08/24 03:03:51;;;;;;;5.10;2.08;;;;;;;24.38;53.74;101813.97;4893005;29;20056;-84
2022/08/24 03:06:17;;;;;;;2.78;2.05;;;;;;;24.38;53.88;101816.63;4880732;29;20052;-83
2022/08/24 03:08:43;;;;;;;3.85;2.05;;;;;;;24.38;53.99;101813.97;4911440;29;20055;-83
2022/08/24 03:11:09;;;;;;;2.95;2.08;;;;;;;24.38;53.81;101811.34;4898840;29;20469;-82
2022/08/24 03:13:35;;;;;;;3.35;2.30;;;;;;;24.36;54.00;101814.91;4901346;29;20040;-82
2022/08/24 03:16:01;;;;;;;2.92;2.60;;;;;;;24.34;53.76;101817.56;4915203;29;20056;-83
2022/08/24 03:18:27;;;;;;;5.20;2.72;;;;;;;24.34;53.79;101816.72;4881480;29;20157;-84
2022/08/24 03:20:54;;;;;;;2.97;2.58;;;;;;;24.35;54.20;101813.22;4895044;29;20742;-84
2022/08/24 03:23:20;;;;;;;3.65;2.30;;;;;;;24.35;53.72;101811.44;4897427;29;20091;-83
2022/08/24 03:25:46;;;;;;;3.60;2.60;;;;;;;24.33;53.71;101815.88;4894508;29;20044;-83
2022/08/24 03:28:12;;;;;;;3.65;2.60;;;;;;;24.32;53.68;101815.88;4896453;29;20409;-83
2022/08/24 03:30:39;;;;;;;3.90;2.40;;;;;;;24.31;53.89;101812.41;4879546;29;20052;-83
2022/08/24 03:33:05;;;;;;;4.18;2.95;;;;;;;24.31;53.98;101815.03;4880962;29;20048;-83
2022/08/24 03:35:31;;;;;;;3.30;2.72;;;;;;;24.28;53.77;101809.84;4880239;29;20124;-84
2022/08/24 03:37:56;;;;;;;3.60;2.72;;;;;;;24.29;53.85;101818.59;4880436;29;20451;-83
2022/08/24 03:40:22;;;;;;;4.13;2.90;;;;;;;24.28;53.96;101820.38;4896784;29;20052;-83
2022/08/24 03:42:48;;;;;;;3.88;2.60;;;;;;;24.28;53.98;101811.59;4878920;29;20455;-83
2022/08/24 03:45:14;;;;;;;3.20;2.63;;;;;;;24.28;54.10;101817.75;4896281;29;20072;-83
2022/08/24 03:47:39;;;;;;;3.63;2.83;;;;;;;24.28;53.63;101825.63;4878985;29;20044;-87
2022/08/24 03:50:06;;;;;;;3.15;2.60;;;;;;;24.28;53.85;101819.47;4897424;29;20048;-87
2022/08/24 03:52:32;;;;;;;4.60;2.70;;;;;;;24.28;53.85;101816.84;4888596;29;20052;-87
2022/08/24 03:54:57;;;;;;;2.92;2.60;;;;;;;24.23;53.88;101820.44;4873731;29;20116;-85
2022/08/24 03:57:23;;;;;;;2.80;2.50;;;;;;;24.22;53.76;101812.59;4900026;29;20187;-87
2022/08/24 03:59:49;;;;;;;4.78;2.97;;;;;;;24.22;54.00;101818.72;4882695;29;20411;-87
2022/08/24 04:02:14;;;;;;;3.10;2.45;;;;;;;24.23;53.95;101817.81;4884825;29;20193;-86
2022/08/24 04:04:40;;;;;;;3.97;2.90;;;;;;;24.22;53.95;101816.09;4904531;29;20052;-86
2022/08/24 04:07:05;;;;;;;4.13;3.00;;;;;;;24.21;54.03;101824.00;4871839;29;20164;-87
2022/08/24 04:09:31;;;;;;;2.92;2.38;;;;;;;24.21;53.71;101824.91;4882971;29;20063;-87
2022/08/24 04:11:56;;;;;;;3.33;2.55;;;;;;;24.21;54.16;101827.53;4884135;29;20048;-88
2022/08/24 04:14:22;;;;;;;4.20;3.00;;;;;;;24.25;54.08;101832.72;4884734;29;20051;-87
2022/08/24 04:16:47;;;;;;;3.25;2.95;;;;;;;24.24;54.08;101831.84;4898128;29;20423;-87
2022/08/24 04:19:13;;;;;;;3.20;2.72;;;;;;;24.24;53.81;101837.13;4869057;29;20095;-88
2022/08/24 04:21:39;;;;;;;3.20;2.88;;;;;;;24.25;54.13;101832.72;4898252;29;20052;-88
2022/08/24 04:24:06;;;;;;;4.57;3.08;;;;;;;24.25;53.87;101838.81;4899871;29;20048;-88
2022/08/24 04:26:32;;;;;;;4.68;2.83;;;;;;;24.23;54.00;101836.22;4916575;29;20056;-88
2022/08/24 04:28:58;;;;;;;3.58;3.08;;;;;;;24.23;54.21;101840.63;4902333;29;20072;-88
2022/08/24 04:31:24;;;;;;;3.65;2.78;;;;;;;24.24;54.24;101834.47;4901775;29;20068;-88
2022/08/24 04:33:50;;;;;;;5.28;2.88;;;;;;;24.24;53.72;101842.38;4898288;29;20051;-88
2022/08/24 04:36:20;;;;;;;4.35;2.92;;;;;;;24.23;54.13;101836.22;4892128;29;20116;-87
2022/08/24 04:38:46;;;;;;;3.00;2.70;;;;;;;24.25;54.17;101840.59;4914141;29;20119;-87
2022/08/24 04:41:19;;;;;;;3.70;2.88;;;;;;;24.25;54.19;101846.72;4903005;29;20079;-87
2022/08/24 04:43:45;;;;;;;4.03;3.05;;;;;;;24.26;53.91;101843.22;4913516;29;20039;-87
2022/08/24 04:46:14;;;;;;;4.15;3.05;;;;;;;24.26;54.19;101840.56;4892049;29;20134;-87
2022/08/24 04:48:40;;;;;;;3.88;3.45;;;;;;;24.25;53.90;101836.19;4897243;29;20048;-87
2022/08/24 04:51:08;;;;;;;3.78;2.72;;;;;;;24.28;54.36;101840.53;4916695;29;20499;-87
2022/08/24 04:53:34;;;;;;;3.92;2.92;;;;;;;24.26;53.98;101839.69;4897401;29;20056;-83
2022/08/24 04:56:00;;;;;;;7.43;2.70;;;;;;;24.26;54.33;101852.84;4898734;29;20052;-84
2022/08/24 05:00:52;;;;;;;4.20;2.72;;;;;;;24.26;54.13;101844.94;4913800;29;20702;-84
2022/08/24 05:03:18;;;;;;;5.72;3.30;;;;;;;24.28;54.54;101845.78;4883322;29;20060;-82
2022/08/24 05:05:47;;;;;;;3.83;2.65;;;;;;;24.29;53.78;101842.28;4889043;29;20059;-84
2022/08/24 05:08:14;;;;;;;3.10;2.47;;;;;;;24.32;53.83;101840.41;4898886;29;20056;-84
2022/08/24 05:10:43;;;;;;;4.53;3.10;;;;;;;24.34;54.20;101843.88;4865753;29;20055;-84
2022/08/24 05:13:09;;;;;;;5.22;3.17;;;;;;;24.32;54.11;101844.81;4915595;29;20059;-85
2022/08/24 05:15:39;;;;;;;6.03;4.40;;;;;;;24.19;54.63;101836.31;4889012;29;20408;-85
2022/08/24 05:18:05;;;;;;;8.35;5.15;;;;;;;24.12;54.89;101837.38;4891828;29;20391;-91
2022/08/24 05:20:30;;;;;;;9.35;5.97;;;;;;;24.06;55.64;101842.75;4895457;29;20063;-86
2022/08/24 05:22:56;;;;;;;11.05;5.88;;;;;;;24.03;55.58;101847.16;4883087;29;20064;-85
2022/08/24 05:25:22;;;;;;;6.53;5.72;;;;;;;24.01;55.84;101854.22;4869703;29;20087;-80
2022/08/24 05:27:47;;;;;;;13.25;5.85;;;;;;;24.00;56.19;101849.88;4897373;29;20060;-85
2022/08/24 05:30:13;;;;;;;9.20;5.22;;;;;;;24.02;55.88;101858.59;4867687;29;20131;-85
2022/08/24 05:32:39;;;;;;;7.18;5.88;;;;;;;24.02;56.03;101848.09;4913059;29;20060;-84
2022/08/24 05:35:06;;;;;;;10.07;5.70;;;;;;;24.01;56.08;101851.59;4882506;29;20415;-84
2022/08/24 05:37:36;;;;;;;8.15;5.00;;;;;;;24.05;56.23;101852.41;4881053;29;20082;-85
2022/08/24 05:40:08;;;;;;;9.63;5.15;;;;;;;24.04;56.64;101853.31;4897482;29;20402;-87
2022/08/24 05:42:34;;;;;;;5.97;5.20;;;;;;;24.05;56.53;101860.28;4896167;29;20052;-86
2022/08/24 05:44:59;;;;;;;6.90;5.00;;;;;;;24.05;56.73;101859.44;4884054;29;20436;-86
2022/08/24 05:47:25;;;;;;;7.88;5.30;;;;;;;24.05;56.64;101860.28;4882712;29;20055;-85
2022/08/24 05:49:53;;;;;;;7.72;5.00;;;;;;;24.06;57.00;101863.78;4865082;29;20099;-84
2022/08/24 05:52:19;;;;;;;7.15;5.13;;;;;;;24.05;56.96;101865.56;4897811;29;20063;-84
2022/08/24 05:54:51;;;;;;;9.70;5.20;;;;;;;24.03;57.03;101855.06;4895380;29;20136;-85
2022/08/24 05:57:17;;;;;;;5.47;4.70;;;;;;;24.06;56.99;101866.41;4852487;29;1388863;-86
2022/08/24 05:59:44;;;;;;;5.78;4.75;;;;;;;24.05;56.92;101862.06;4884273;29;20059;-85
2022/08/24 06:02:10;;;;;;;6.85;4.95;;;;;;;24.04;57.02;101866.47;4897512;29;20059;-88
2022/08/24 06:04:37;;;;;;;8.00;4.80;;;;;;;24.02;57.28;101861.22;4880442;29;20048;-86
2022/08/24 06:07:03;;;;;;;5.57;4.90;;;;;;;24.03;57.20;101865.56;4898033;29;20044;-86
2022/08/24 06:09:31;;;;;;;5.93;4.32;;;;;;;24.03;56.90;101864.72;4881235;29;20044;-86
2022/08/24 06:11:58;;;;;;;6.25;4.43;;;;;;;24.07;56.95;101860.28;4865325;29;20052;-86
2022/08/24 06:14:23;;;;;;;6.82;3.88;;;;;;;24.08;57.35;101864.63;4882443;29;20040;-86
2022/08/24 06:16:49;;;;;;;7.03;4.13;;;;;;;24.08;57.33;101872.50;4864278;29;20112;-86
2022/08/24 06:19:19;;;;;;;7.25;3.78;;;;;;;24.12;57.41;101874.19;4890659;29;20056;-85
2022/08/24 06:21:48;;;;;;;4.80;3.60;;;;;;;24.14;57.13;101868.00;4879531;29;20061;-85
2022/08/24 06:24:15;;;;;;;5.47;3.25;;;;;;;24.16;56.99;101875.84;4913984;29;20060;-84
2022/08/24 06:29:28;;;;;;;6.47;3.20;;;;;;;24.14;57.45;101881.13;4913079;29;20122;-84
2022/08/24 06:31:55;;;;;;;6.13;3.28;;;;;;;24.17;57.56;101880.19;4896062;29;20119;-83
2022/08/24 06:34:22;;;;;;;5.07;2.78;;;;;;;24.17;57.52;101878.47;4882144;29;20071;-83
2022/08/24 06:36:47;;;;;;;7.38;2.92;;;;;;;24.17;57.42;101878.47;4894815;29;20055;-84
2022/08/24 06:39:13;;;;;;;4.38;2.70;;;;;;;24.20;57.56;101875.75;4897211;29;20064;-81
2022/08/24 06:41:39;;;;;;;5.07;2.72;;;;;;;24.22;57.62;101867.84;4897050;29;20055;-83
2022/08/24 06:44:07;;;;;;;3.78;2.45;;;;;;;24.28;57.58;101870.34;4914026;29;20554;-83
2022/08/24 06:46:35;;;;;;;5.70;2.58;;;;;;;24.28;57.60;101872.09;4895288;29;20108;-82
2022/08/24 06:49:03;;;;;;;6.95;2.75;;;;;;;24.33;57.51;101872.88;4895962;29;20475;-82
2022/08/24 06:51:30;;;;;;;5.85;2.35;;;;;;;24.35;57.44;101874.56;4880994;29;20056;-83
2022/08/24 06:53:56;;;;;;;5.05;2.53;;;;;;;24.35;57.54;101871.94;4881080;29;20079;-82
2022/08/24 06:56:21;;;;;;;6.72;2.40;;;;;;;24.40;57.46;101872.69;4881344;29;20095;-82
2022/08/24 06:58:47;;;;;;;6.10;2.30;;;;;;;24.39;57.66;101878.00;4895104;29;21563;-82
2022/08/24 07:01:14;;;;;;;4.97;2.60;;;;;;;24.39;57.25;101878.88;4881500;29;20479;-82
2022/08/24 07:03:39;;;;;;;6.35;2.60;;;;;;;24.41;57.40;101877.06;4894487;29;20133;-82
2022/08/24 07:06:06;;;;;;;4.63;2.40;;;;;;;24.40;57.63;101877.94;4913840;29;20060;-82
2022/08/24 07:08:32;;;;;;;5.13;2.15;;;;;;;24.41;57.30;101878.81;4895280;29;20044;-83
2022/08/24 07:11:01;;;;;;;6.00;2.30;;;;;;;24.40;57.46;101880.59;4896426;29;20052;-83
2022/08/24 07:13:28;;;;;;;4.60;2.30;;;;;;;24.44;57.54;101876.13;4913942;29;20052;-83
2022/08/24 07:15:52;;;;;;;3.72;2.20;;;;;;;24.42;57.46;101877.94;4894666;29;20075;-84
2022/08/24 07:18:18;;;;;;;3.05;1.90;;;;;;;24.48;57.28;101884.84;4866082;29;20048;-83
2022/08/24 07:20:45;;;;;;;3.50;1.90;;;;;;;24.48;57.55;101884.84;4912692;29;20059;-80
2022/08/24 07:23:13;;;;;;;5.15;2.00;;;;;;;24.51;57.67;101888.28;4898770;29;20056;-84
2022/08/24 07:25:39;;;;;;;6.70;1.90;;;;;;;24.53;57.34;101886.47;4894533;29;20143;-85
2022/08/24 07:28:05;;;;;;;4.57;2.00;;;;;;;24.53;57.72;101886.47;4881382;29;20052;-83
2022/08/24 07:30:31;;;;;;;4.47;1.73;;;;;;;24.55;57.64;101889.09;4916058;29;20048;-83
2022/08/24 07:32:57;;;;;;;3.53;1.77;;;;;;;24.56;57.47;101891.69;4879612;29;20052;-83
2022/08/24 07:35:25;;;;;;;3.85;1.60;;;;;;;24.59;57.33;101896.00;4871166;29;20049;-82
2022/08/24 07:37:51;;;;;;;3.50;1.60;;;;;;;24.60;57.51;101895.09;4915870;29;20501;-83
2022/08/24 07:40:17;;;;;;;3.53;2.00;;;;;;;24.59;57.23;101904.78;4900829;29;20052;-83
2022/08/24 07:42:46;;;;;;;4.47;1.80;;;;;;;24.62;57.16;101898.56;4899430;29;20115;-83
2022/08/24 07:45:12;;;;;;;2.78;1.60;;;;;;;24.63;57.36;101901.16;4900373;29;20067;-83
2022/08/24 07:47:37;;;;;;;3.63;1.40;;;;;;;24.61;57.23;101902.97;4897910;29;20056;-83
2022/08/24 07:50:03;;;;;;;3.40;1.30;;;;;;;24.64;57.49;101902.03;4868935;29;20056;-84
2022/08/24 07:52:32;;;;;;;2.38;1.40;;;;;;;24.66;57.21;101900.22;4883827;29;20058;-82
2022/08/24 07:54:57;;;;;;;2.72;1.50;;;;;;;24.69;57.10;101902.78;4899160;29;20131;-82
2022/08/24 07:57:23;;;;;;;1.63;1.00;;;;;;;24.74;56.60;101900.94;4900016;29;20055;-84
2022/08/24 07:59:49;;;;;;;3.65;1.50;;;;;;;24.76;56.51;101907.03;4882243;29;20082;-82
2022/08/24 08:02:14;;;;;;;2.67;1.33;;;;;;;24.78;56.92;101910.50;4901482;29;20080;-80
2022/08/24 08:04:40;;;;;;;2.25;1.30;;;;;;;24.82;56.64;101904.25;4884705;29;20099;-82
2022/08/24 08:07:06;;;;;;;1.55;1.35;;;;;;;24.85;56.41;101913.84;4899747;29;20048;-83
2022/08/24 08:09:32;;;;;;;3.90;1.25;;;;;;;24.86;56.37;101920.84;4867629;29;20144;-83
2022/08/24 08:11:58;;;;;;;2.10;1.17;;;;;;;24.86;56.70;101919.97;4899503;29;20059;-83
2022/08/24 08:14:26;;;;;;;3.00;1.27;;;;;;;24.85;56.57;101924.38;4883782;29;20091;-83
2022/08/24 08:16:52;;;;;;;1.90;1.15;;;;;;;24.84;56.76;101927.91;4914280;29;20562;-82
2022/08/24 08:19:18;;;;;;;2.67;1.27;;;;;;;24.87;56.74;101927.84;4883944;29;20360;-82
2022/08/24 08:24:30;;;;;;;2.55;1.30;;;;;;;24.91;56.30;101931.25;4915772;29;20051;-82
2022/08/24 08:26:56;;;;;;;2.25;1.40;;;;;;;24.89;56.58;101928.69;4882698;29;20048;-82
2022/08/24 08:29:24;;;;;;;2.53;1.20;;;;;;;24.91;56.13;101931.25;4899447;29;20461;-82
2022/08/24 08:31:51;;;;;;;4.60;1.10;;;;;;;24.94;56.07;101933.84;4914518;29;20521;-82
2022/08/24 08:34:16;;;;;;;1.35;0.90;;;;;;;24.95;56.37;101935.56;4883926;29;20455;-83
2022/08/24 08:36:42;;;;;;;5.63;1.33;;;;;;;24.97;56.11;101945.13;4866496;29;20048;-82
2022/08/24 08:39:09;;;;;;;4.35;1.10;;;;;;;24.98;56.28;101930.22;4884218;29;20398;-85
2022/08/24 08:42:13;;;;;;;5.18;1.20;;;;;;;24.97;56.28;101933.75;4913412;29;20117;-82
2022/08/24 08:44:51;;;;;;;3.80;1.20;;;;;;;24.99;55.88;101935.44;4899620;29;20059;-82
2022/08/24 08:50:15;;;;;;;5.22;1.23;;;;;;;25.04;56.05;101936.22;4914319;29;20716;-82
2022/08/24 08:52:47;;;;;;;3.38;0.95;;;;;;;25.17;55.37;101939.44;4897204;29;20207;-82
2022/08/24 08:58:10;;;;;;;3.50;1.20;;;;;;;25.19;55.33;101940.25;4906746;29;20067;-82
2022/08/24 09:01:06;;;;;;;2.95;1.35;;;;;;;25.23;55.19;101935.78;4897850;29;20044;-82
2022/08/24 09:03:39;;;;;;;3.47;1.20;;;;;;;25.25;55.53;101937.47;4888769;29;20080;-82
2022/08/24 09:09:06;;;;;;;6.28;1.77;;;;;;;25.22;55.57;101934.06;4917050;29;20052;-81
2022/08/24 09:11:59;;;;;;;7.55;1.67;;;;;;;25.24;55.60;101929.63;4898082;29;20052;-82
2022/08/24 09:17:04;;;;;;;3.58;1.42;;;;;;;25.23;55.76;101935.78;4914039;29;20040;-83
2022/08/24 09:19:35;;;;;;;7.85;1.50;;;;;;;25.22;55.67;101934.94;4897747;29;20079;-82
2022/08/24 09:22:10;;;;;;;4.38;1.70;;;;;;;25.23;55.79;101931.38;4914649;29;20056;-82
2022/08/24 09:24:56;;;;;;;3.65;2.05;;;;;;;25.11;56.25;101931.66;4897583;29;20048;-82
2022/08/24 09:30:08;;;;;;;3.50;1.52;;;;;;;25.17;55.99;101930.63;4913648;29;20052;-82
2022/08/24 09:32:55;;;;;;;3.45;1.50;;;;;;;25.16;55.99;101937.69;4896455;29;20056;-82
2022/08/24 09:37:59;;;;;;;3.13;1.52;;;;;;;25.18;56.05;101930.59;4912974;29;20071;-82
2022/08/24 09:43:16;;;;;;;4.20;1.30;;;;;;;25.20;55.72;101942.00;4912829;29;20056;-83
2022/08/24 09:46:14;;;;;;;2.55;1.10;;;;;;;25.20;55.69;101946.41;4896263;29;20063;-82
2022/08/24 09:49:17;;;;;;;3.00;1.15;;;;;;;25.23;55.69;101946.31;4889495;29;20055;-82
2022/08/24 09:52:01;;;;;;;3.22;1.15;;;;;;;25.24;55.49;101942.81;4896487;29;20139;-83
2022/08/24 09:56:58;;;;;;;0.90;0.77;;;;;;;25.25;54.95;101948.03;4913674;29;20508;-83
2022/08/24 10:02:07;;;;;;;2.58;0.80;;;;;;;25.23;55.02;101947.19;4913294;29;20056;-83
2022/08/24 10:04:42;;;;;;;1.55;0.90;;;;;;;25.27;54.93;101942.72;4889936;29;20052;-83
2022/08/24 10:10:10;;;;;;;2.13;0.90;;;;;;;25.27;54.89;101928.69;4913027;29;20651;-84
2022/08/24 10:13:13;;;;;;;3.63;0.93;;;;;;;25.31;54.51;101928.56;4854945;29;1203014;-83
2022/08/24 10:15:52;;;;;;;11.93;4.93;;;;;;;25.30;54.88;101925.97;4895846;29;20496;-84
2022/08/24 10:18:24;;;;;;;5.80;2.83;;;;;;;25.30;54.17;101926.81;4897490;29;20051;-81
2022/08/24 10:20:58;;;;;;;6.53;2.90;;;;;;;25.32;54.64;101937.34;4895547;29;20048;-82
2022/08/24 10:25:58;;;;;;;5.82;2.22;;;;;;;25.32;54.65;101930.28;4911936;29;21207;-84
2022/08/24 10:31:04;;;;;;;7.68;2.30;;;;;;;25.27;54.34;101928.69;4912844;29;21191;-84
2022/08/24 10:33:48;;;;;;;2.83;1.70;;;;;;;25.24;54.57;101922.59;4896326;29;20048;-85
2022/08/24 10:45:06;;;;;;;4.78;1.95;;;;;;;25.24;55.02;101927.88;4905126;29;20147;-83
2022/08/24 10:47:35;;;;;;;3.15;1.60;;;;;;;25.22;55.36;101926.19;4896503;29;20059;-83
2022/08/24 10:50:00;;;;;;;3.90;1.70;;;;;;;25.23;55.16;101933.16;4901372;29;20394;-83
2022/08/24 10:54:52;;;;;;;3.22;1.60;;;;;;;25.23;55.37;101930.53;4923405;29;20052;-83
2022/08/24 10:57:17;;;;;;;4.97;1.50;;;;;;;25.23;55.73;101931.38;4873822;29;20055;-84
2022/08/24 11:00:00;;;;;;;4.75;1.55;;;;;;;25.23;55.41;101930.53;4903014;29;20115;-84
2022/08/24 11:05:08;;;;;;;3.45;1.70;;;;;;;25.22;55.67;101927.03;4915424;29;21084;-84
2022/08/24 11:07:35;;;;;;;4.05;1.88;;;;;;;25.24;55.40;101919.09;4917004;29;20491;-85
2022/08/24 11:10:05;;;;;;;5.65;1.85;;;;;;;25.23;55.55;101920.00;4881936;29;20063;-84
2022/08/24 11:12:41;;;;;;;5.13;1.60;;;;;;;25.24;55.53;101927.00;4913969;29;20115;-84
2022/08/24 11:15:17;;;;;;;2.85;1.83;;;;;;;25.25;55.46;101926.09;4916521;29;20059;-84
2022/08/24 11:18:00;;;;;;;2.60;1.50;;;;;;;25.25;55.71;101929.56;4898323;29;20054;-84
2022/08/24 11:23:03;;;;;;;3.35;1.63;;;;;;;25.25;55.84;101923.44;4915830;29;19937;-84
2022/08/24 11:25:31;;;;;;;2.85;1.67;;;;;;;25.28;55.36;101922.50;4899711;29;20056;-84
2022/08/24 11:28:24;;;;;;;4.72;1.90;;;;;;;25.27;55.58;101923.41;4885772;29;20509;-83
2022/08/24 11:30:49;;;;;;;3.83;1.90;;;;;;;25.27;55.52;101918.16;4902365;29;20495;-84
2022/08/24 11:35:52;;;;;;;3.72;1.60;;;;;;;25.29;55.58;101924.25;4915664;29;20064;-85
2022/08/24 11:41:00;;;;;;;4.05;1.70;;;;;;;25.30;55.75;101928.59;4915769;29;20926;-84
2022/08/24 11:46:06;;;;;;;4.40;1.73;;;;;;;25.30;55.84;101923.34;4915022;29;20060;-84
2022/08/24 11:48:59;;;;;;;5.35;1.70;;;;;;;25.30;56.03;101923.34;4916025;29;20078;-84
2022/08/24 11:54:01;;;;;;;5.43;1.85;;;;;;;25.30;55.98;101924.19;4899120;29;20480;-84
2022/08/24 11:59:09;;;;;;;2.97;1.60;;;;;;;25.29;55.81;101926.88;4914941;29;20082;-84
2022/08/24 12:01:58;;;;;;;3.03;1.48;;;;;;;25.29;56.13;101925.09;4914740;29;20085;-84
2022/08/24 12:07:13;;;;;;;2.92;1.52;;;;;;;25.28;55.85;101926.00;4877391;29;20207;-84
2022/08/24 12:09:53;;;;;;;3.40;1.85;;;;;;;25.28;55.79;101933.03;4876382;29;20144;-84
2022/08/24 12:15:04;;;;;;;3.58;1.60;;;;;;;25.32;55.46;101927.66;4876227;29;20072;-85
2022/08/24 12:17:38;;;;;;;2.35;1.42;;;;;;;25.32;55.77;101924.16;4876093;29;20055;-85
2022/08/24 12:22:57;;;;;;;4.28;1.20;;;;;;;25.30;55.64;101926.81;4898725;29;20108;-85
2022/08/24 12:27:54;;;;;;;4.03;1.60;;;;;;;25.36;55.32;101923.19;4914269;29;20064;-85
2022/08/24 12:30:21;;;;;;;3.92;1.50;;;;;;;25.37;55.38;101930.16;4898958;29;20063;-85
2022/08/24 12:33:12;;;;;;;4.38;1.50;;;;;;;25.37;55.46;101927.53;4913639;29;20059;-84
2022/08/24 12:35:54;;;;;;;3.88;1.40;;;;;;;25.38;55.33;101926.66;4906863;29;20521;-85
2022/08/24 12:41:14;;;;;;;2.60;1.60;;;;;;;25.39;55.42;101917.81;4898206;29;20167;-84
2022/08/24 12:43:54;;;;;;;2.80;1.20;;;;;;;25.39;55.34;101918.72;4896227;29;20055;-84
2022/08/24 12:46:25;;;;;;;1.58;1.20;;;;;;;25.40;55.44;101923.06;4899029;29;20044;-85
2022/08/24 12:49:18;;;;;;;2.60;1.35;;;;;;;25.41;55.14;101923.91;4897124;29;20048;-84
2022/08/24 12:52:06;;;;;;;2.55;1.40;;;;;;;25.43;55.12;101919.47;4917827;29;20060;-86
2022/08/24 12:54:40;;;;;;;3.20;1.20;;;;;;;25.43;55.59;101922.13;4898102;29;20056;-84
2022/08/24 12:57:14;;;;;;;2.63;1.40;;;;;;;25.43;55.50;101922.13;4898007;29;20103;-85
2022/08/24 12:59:46;;;;;;;3.20;1.30;;;;;;;25.45;55.51;101925.56;4896386;29;20470;-84
2022/08/24 13:02:17;;;;;;;3.28;1.42;;;;;;;25.46;55.37;101919.41;4898551;29;20048;-86
2022/08/24 13:04:49;;;;;;;1.85;1.10;;;;;;;25.47;55.38;101922.91;4896715;29;20402;-84
2022/08/24 13:07:17;;;;;;;4.38;1.40;;;;;;;25.48;55.27;101914.09;4898803;29;20044;-85
2022/08/24 13:09:47;;;;;;;3.83;1.20;;;;;;;25.48;55.23;101922.88;4896382;29;20430;-85
2022/08/24 13:14:52;;;;;;;2.20;1.30;;;;;;;25.51;54.96;101921.94;4912917;29;20056;-85
2022/08/24 13:17:18;;;;;;;3.60;1.20;;;;;;;25.51;54.74;101917.53;4867083;29;20095;-85